createdAt,value
2018-02-23T00:00:34.742Z,14.37
2018-02-23T00:03:36.125Z,16.07
2018-02-23T00:06:37.434Z,15.83
2018-02-23T00:09:38.797Z,14.27
2018-02-23T00:12:40.265Z,14.33
2018-02-23T00:15:41.649Z,14.73
2018-02-23T00:18:43.068Z,13.40
2018-02-23T00:21:45.187Z,14.47
2018-02-23T00:24:46.538Z,14.70
2018-02-23T00:27:47.934Z,14.10
2018-02-23T00:30:50.059Z,14.70
2018-02-23T00:33:51.459Z,13.97
2018-02-23T00:36:52.815Z,15.37
2018-02-23T00:39:54.206Z,13.37
2018-02-23T00:42:56.308Z,14.20
2018-02-23T00:45:57.670Z,12.93
2018-02-23T00:48:59.016Z,14.63
2018-02-23T00:52:00.397Z,14.10
2018-02-23T00:55:02.572Z,12.77
2018-02-23T00:58:04.697Z,14.10
2018-02-23T01:01:06.043Z,14.27
2018-02-23T01:04:07.378Z,14.30
2018-02-23T01:07:08.733Z,13.70
2018-02-23T01:10:10.207Z,12.80
2018-02-23T01:13:11.638Z,15.10
2018-02-23T01:16:13.761Z,13.23
2018-02-23T01:19:15.128Z,13.87
2018-02-23T01:22:16.521Z,13.23
2018-02-23T01:25:17.870Z,13.37
2018-02-23T01:28:19.952Z,14.37
2018-02-23T01:31:22.305Z,12.80
2018-02-23T01:34:23.670Z,13.43
2018-02-23T01:37:25.049Z,12.93
2018-02-23T01:40:26.437Z,12.80
2018-02-23T01:43:28.579Z,14.00
2018-02-23T01:46:29.974Z,13.30
2018-02-23T01:49:31.365Z,13.03
2018-02-23T01:52:33.474Z,13.00
2018-02-23T01:55:34.844Z,13.50
2018-02-23T01:58:36.218Z,14.17
2018-02-23T02:01:37.569Z,14.30
2018-02-23T02:04:38.965Z,15.43
2018-02-23T02:07:40.290Z,12.77
2018-02-23T02:10:41.669Z,14.90
2018-02-23T02:13:43.111Z,12.80
2018-02-23T02:16:45.222Z,13.30
2018-02-23T02:19:46.610Z,13.43
2018-02-23T02:22:48.019Z,15.00
2018-02-23T02:25:50.146Z,14.10
2018-02-23T02:28:51.540Z,14.27
2018-02-23T02:31:52.930Z,15.00
2018-02-23T02:34:55.081Z,14.53
2018-02-23T02:37:56.450Z,15.73
2018-02-23T02:40:57.906Z,15.90
2018-02-23T02:43:59.289Z,16.07
2018-02-23T02:47:00.689Z,14.27
2018-02-23T02:50:02.806Z,15.40
2018-02-23T02:53:04.265Z,15.47
2018-02-23T02:56:05.605Z,15.90
2018-02-23T02:59:07.739Z,15.23
2018-02-23T03:02:09.170Z,15.07
2018-02-23T03:05:10.582Z,15.30
2018-02-23T03:11:20.004Z,14.93
2018-02-23T03:14:22.102Z,14.80
2018-02-23T03:17:23.466Z,16.00
2018-02-23T03:20:24.833Z,17.33
2018-02-23T03:23:28.745Z,15.67
2018-02-23T03:26:30.909Z,15.33
2018-02-23T03:29:32.279Z,16.60
2018-02-23T03:32:34.401Z,16.37
2018-02-23T03:35:35.825Z,15.60
2018-02-23T03:38:37.225Z,16.20
2018-02-23T03:41:38.602Z,15.77
2018-02-23T03:44:39.970Z,15.80
2018-02-23T03:47:41.349Z,16.17
2018-02-23T03:50:42.738Z,16.17
2018-02-23T03:53:44.175Z,15.20
2018-02-23T03:56:45.546Z,16.07
2018-02-23T03:59:46.954Z,15.43
2018-02-23T04:02:48.444Z,17.07
2018-02-23T04:05:50.560Z,14.77
2018-02-23T04:08:51.928Z,17.10
2018-02-23T04:11:53.334Z,15.60
2018-02-23T04:14:54.744Z,16.23
2018-02-23T04:17:56.142Z,16.13
2018-02-23T04:20:57.530Z,17.63
2018-02-23T04:23:58.903Z,17.17
2018-02-23T04:27:00.278Z,17.63
2018-02-23T04:30:02.464Z,17.80
2018-02-23T04:33:03.831Z,18.13
2018-02-23T04:36:05.244Z,17.57
2018-02-23T04:39:06.604Z,16.17
2018-02-23T04:42:07.991Z,19.57
2018-02-23T04:45:09.340Z,18.20
2018-02-23T04:48:10.694Z,17.80
2018-02-23T04:51:12.094Z,17.20
2018-02-23T04:54:13.528Z,19.13
2018-02-23T04:57:14.971Z,19.00
2018-02-23T05:00:17.125Z,16.87
2018-02-23T05:03:18.563Z,20.17
2018-02-23T05:06:19.969Z,18.80
2018-02-23T05:09:21.398Z,21.33
2018-02-23T05:12:22.822Z,21.23
2018-02-23T05:15:24.935Z,21.80
2018-02-23T05:18:26.398Z,21.93
2018-02-23T05:21:27.763Z,22.07
2018-02-23T05:24:29.141Z,21.83
2018-02-23T05:27:30.567Z,21.50
2018-02-23T05:30:32.710Z,20.13
2018-02-23T05:33:34.888Z,21.37
2018-02-23T05:36:36.350Z,19.90
2018-02-23T05:39:37.749Z,20.03
2018-02-23T05:42:40.243Z,19.87
2018-02-23T05:45:42.493Z,20.30
2018-02-23T05:48:44.334Z,20.83
2018-02-23T05:51:46.593Z,20.00
2018-02-23T05:54:49.024Z,18.83
2018-02-23T06:00:58.567Z,18.80
2018-02-23T06:03:59.986Z,19.07
2018-02-23T06:07:01.373Z,16.77
2018-02-23T06:10:02.820Z,19.70
2018-02-23T06:13:04.321Z,18.90
2018-02-23T06:16:11.843Z,18.10
2018-02-23T06:19:19.441Z,17.10
2018-02-23T06:22:20.873Z,17.50
2018-02-23T06:25:22.329Z,19.17
2018-02-23T06:28:24.430Z,15.83
2018-02-23T06:31:25.777Z,15.57
2018-02-23T06:34:27.912Z,14.33
2018-02-23T06:37:30.060Z,13.60
2018-02-23T06:40:31.488Z,13.30
2018-02-23T06:43:32.959Z,14.70
2018-02-23T06:46:34.338Z,14.17
2018-02-23T06:49:35.801Z,11.60
2018-02-23T06:52:37.914Z,13.10
2018-02-23T06:55:39.382Z,11.83
2018-02-23T06:58:40.733Z,11.63
2018-02-23T07:01:42.950Z,11.50
2018-02-23T07:04:44.501Z,9.70
2018-02-23T07:07:45.894Z,11.07
2018-02-23T07:13:55.194Z,9.60
2018-02-23T07:16:56.500Z,9.50
2018-02-23T07:19:58.623Z,8.20
2018-02-23T07:22:59.945Z,8.10
2018-02-23T07:26:02.014Z,6.80
2018-02-23T07:29:03.447Z,8.70
2018-02-23T07:32:04.816Z,8.60
2018-02-23T07:35:06.178Z,7.47
2018-02-23T07:38:07.570Z,7.23
2018-02-23T07:41:08.951Z,6.60
2018-02-23T07:44:10.361Z,6.50
2018-02-23T07:47:11.773Z,7.20
2018-02-23T07:50:13.160Z,6.10
2018-02-23T07:53:15.265Z,6.87
2018-02-23T07:56:16.648Z,6.10
2018-02-23T07:59:18.050Z,6.10
2018-02-23T08:02:19.431Z,6.10
2018-02-23T08:05:20.796Z,6.47
2018-02-23T08:08:22.158Z,7.43
2018-02-23T08:11:23.599Z,7.20
2018-02-23T08:14:25.021Z,8.37
2018-02-23T08:17:26.412Z,5.53
2018-02-23T08:20:28.783Z,6.60
2018-02-23T08:23:30.252Z,5.90
2018-02-23T08:26:31.659Z,6.20
2018-02-23T08:29:32.943Z,6.53
2018-02-23T08:32:34.325Z,5.80
2018-02-23T08:35:36.300Z,6.13
2018-02-23T08:38:37.627Z,5.80
2018-02-23T08:41:38.842Z,6.07
2018-02-23T08:44:40.829Z,5.10
2018-02-23T08:47:42.793Z,5.90
2018-02-23T08:50:44.052Z,6.17
2018-02-23T08:53:45.253Z,6.30
2018-02-23T08:56:46.466Z,6.40
2018-02-23T08:59:47.720Z,6.83
2018-02-23T09:02:48.940Z,6.70
2018-02-23T09:05:50.150Z,6.17
2018-02-23T09:08:51.392Z,6.07
2018-02-23T09:11:52.597Z,6.13
2018-02-23T09:14:54.554Z,8.10
2018-02-23T09:17:55.875Z,8.33
2018-02-23T09:20:57.090Z,6.70
2018-02-23T09:23:58.301Z,6.93
2018-02-23T09:26:59.499Z,6.80
2018-02-23T09:30:00.729Z,6.50
2018-02-23T09:33:01.989Z,6.20
2018-02-23T09:36:03.217Z,6.10
2018-02-23T09:39:05.195Z,6.70
2018-02-23T09:42:07.143Z,5.70
2018-02-23T09:45:08.375Z,6.23
2018-02-23T09:48:09.583Z,6.40
2018-02-23T09:51:10.804Z,5.73
2018-02-23T09:54:11.997Z,6.67
2018-02-23T09:57:13.233Z,6.50
2018-02-23T10:00:14.428Z,5.87
2018-02-23T10:03:15.637Z,7.20
2018-02-23T10:06:16.847Z,6.40
2018-02-23T10:09:18.065Z,6.20
2018-02-23T10:12:19.261Z,8.07
2018-02-23T10:15:20.470Z,5.90
2018-02-23T10:18:21.687Z,5.80
2018-02-23T10:21:22.900Z,5.90
2018-02-23T10:24:24.108Z,6.30
2018-02-23T10:27:26.077Z,5.70
2018-02-23T10:30:27.300Z,6.33
2018-02-23T10:33:28.528Z,6.70
2018-02-23T10:36:29.776Z,7.60
2018-02-23T10:39:31.776Z,6.67
2018-02-23T10:42:32.997Z,7.33
2018-02-23T10:45:34.257Z,6.90
2018-02-23T10:48:35.500Z,6.43
2018-02-23T10:51:36.722Z,6.27
2018-02-23T10:54:37.943Z,6.20
2018-02-23T10:57:39.190Z,5.50
2018-02-23T11:00:40.412Z,5.80
2018-02-23T11:03:41.647Z,7.37
2018-02-23T11:06:42.851Z,6.63
2018-02-23T11:09:44.824Z,7.20
2018-02-23T11:12:46.009Z,6.53
2018-02-23T11:15:47.265Z,6.53
2018-02-23T11:18:49.210Z,7.00
2018-02-23T11:21:50.448Z,6.27
2018-02-23T11:24:51.657Z,6.47
2018-02-23T11:27:53.601Z,5.80
2018-02-23T11:30:54.805Z,6.83
2018-02-23T11:33:56.796Z,6.57
2018-02-23T11:36:58.737Z,7.67
2018-02-23T11:39:59.985Z,7.17
2018-02-23T11:43:02.142Z,7.00
2018-02-23T11:46:03.369Z,7.53
2018-02-23T11:49:05.414Z,7.60
2018-02-23T11:52:06.641Z,7.10
2018-02-23T11:55:07.906Z,7.20
2018-02-23T11:58:09.155Z,7.73
2018-02-23T12:01:10.392Z,7.90
2018-02-23T12:04:11.640Z,7.67
2018-02-23T12:07:12.872Z,7.47
2018-02-23T12:10:14.184Z,7.40
2018-02-23T12:13:16.172Z,7.43
2018-02-23T12:16:18.180Z,7.67
2018-02-23T12:19:19.383Z,8.60
2018-02-23T12:22:20.612Z,8.70
2018-02-23T12:25:21.860Z,8.67
2018-02-23T12:28:23.110Z,8.83
2018-02-23T12:31:25.064Z,6.80
2018-02-23T12:34:26.391Z,7.17
2018-02-23T12:37:27.590Z,8.10
2018-02-23T12:40:28.880Z,7.67
2018-02-23T12:43:30.880Z,7.83
2018-02-23T12:46:32.130Z,7.17
2018-02-23T12:49:34.081Z,12.00
2018-02-23T12:52:35.445Z,8.17
2018-02-23T12:55:36.661Z,9.83
2018-02-23T12:58:37.900Z,8.60
2018-02-23T13:01:39.873Z,8.93
2018-02-23T13:04:41.848Z,8.83
2018-02-23T13:07:43.808Z,9.47
2018-02-23T13:10:45.080Z,8.40
2018-02-23T13:13:52.421Z,8.80
2018-02-23T13:16:53.889Z,8.03
2018-02-23T13:20:02.090Z,8.20
2018-02-23T13:23:04.053Z,8.10
2018-02-23T13:26:05.279Z,9.70
2018-02-23T13:29:06.505Z,8.47
2018-02-23T13:32:08.514Z,10.47
2018-02-23T13:35:09.751Z,9.07
2018-02-23T13:38:11.719Z,11.00
2018-02-23T13:41:19.773Z,8.70
2018-02-23T13:44:21.016Z,10.00
2018-02-23T13:47:22.974Z,8.37
2018-02-23T13:50:24.173Z,7.10
2018-02-23T13:53:31.444Z,7.33
2018-02-23T13:56:33.445Z,4.90
2018-02-23T13:59:35.407Z,7.87
2018-02-23T14:02:36.610Z,9.77
2018-02-23T14:05:37.854Z,10.97
2018-02-23T14:08:39.093Z,10.07
2018-02-23T14:11:41.076Z,9.90
2018-02-23T14:14:42.267Z,8.67
2018-02-23T14:17:43.484Z,9.30
2018-02-23T14:20:44.712Z,8.50
2018-02-23T14:23:45.965Z,9.53
2018-02-23T14:26:47.204Z,9.47
2018-02-23T14:29:49.265Z,9.33
2018-02-23T14:32:50.493Z,9.30
2018-02-23T14:35:51.681Z,8.50
2018-02-23T14:38:52.924Z,9.87
2018-02-23T14:41:54.140Z,8.83
2018-02-23T14:44:55.375Z,8.67
2018-02-23T14:47:56.589Z,8.00
2018-02-23T14:51:09.956Z,8.40
2018-02-23T14:54:11.921Z,39.47
2018-02-23T14:57:13.161Z,9.03
2018-02-23T15:00:14.380Z,8.90
2018-02-23T15:03:15.597Z,9.70
2018-02-23T15:06:16.808Z,11.80
2018-02-23T15:09:18.060Z,11.53
2018-02-23T15:12:19.308Z,10.07
2018-02-23T15:15:20.559Z,7.20
2018-02-23T15:18:21.807Z,11.77
2018-02-23T15:21:23.038Z,9.07
2018-02-23T15:24:25.000Z,8.33
2018-02-23T15:27:26.223Z,9.20
2018-02-23T15:30:45.997Z,17.90
2018-02-23T15:33:47.213Z,9.50
2018-02-23T15:36:48.409Z,7.73
2018-02-23T15:39:50.358Z,7.03
2018-02-23T15:42:51.580Z,9.00
2018-02-23T15:45:52.849Z,8.47
2018-02-23T15:52:35.165Z,12.20
2018-02-23T15:55:37.154Z,8.37
2018-02-23T15:58:44.188Z,8.63
2018-02-23T16:01:45.469Z,9.10
2018-02-23T16:04:46.724Z,10.80
2018-02-23T16:07:48.705Z,11.37
2018-02-23T16:10:50.053Z,9.07
2018-02-23T16:13:51.293Z,8.60
2018-02-23T16:16:53.273Z,8.27
2018-02-23T16:19:55.256Z,9.57
2018-02-23T16:22:57.264Z,9.80
2018-02-23T16:25:58.492Z,9.63
2018-02-23T16:29:00.433Z,9.47
2018-02-23T16:32:01.629Z,10.23
2018-02-23T16:35:03.606Z,9.43
2018-02-23T16:38:05.591Z,9.30
2018-02-23T16:41:07.542Z,10.00
2018-02-23T16:44:08.776Z,9.30
2018-02-23T16:47:10.033Z,12.63
2018-02-23T16:50:11.281Z,10.60
2018-02-23T16:53:12.526Z,9.63
2018-02-23T16:56:14.473Z,8.43
2018-02-23T16:59:15.716Z,12.50
2018-02-23T17:02:16.917Z,10.30
2018-02-23T17:05:18.153Z,10.87
2018-02-23T17:08:19.378Z,15.40
2018-02-23T17:11:20.699Z,9.37
2018-02-23T17:14:22.589Z,9.10
2018-02-23T17:17:23.876Z,8.90
2018-02-23T17:20:25.696Z,10.07
2018-02-23T17:23:27.153Z,9.37
2018-02-23T17:26:28.379Z,8.83
2018-02-23T17:29:29.685Z,10.37
2018-02-23T17:32:30.927Z,13.90
2018-02-23T17:35:32.201Z,17.23
2018-02-23T17:38:33.947Z,11.80
2018-02-23T17:41:35.338Z,11.80
2018-02-23T17:44:36.634Z,10.23
2018-02-23T17:47:37.892Z,23.37
2018-02-23T17:50:39.125Z,12.10
2018-02-23T17:53:41.029Z,21.80
2018-02-23T17:56:43.580Z,15.17
2018-02-23T17:59:45.364Z,15.00
2018-02-23T18:02:47.101Z,11.00
2018-02-23T18:05:51.193Z,12.33
2018-02-23T18:08:52.917Z,11.87
2018-02-23T18:11:54.279Z,10.30
2018-02-23T18:14:55.738Z,13.20
2018-02-23T18:17:57.149Z,16.53
2018-02-23T18:20:58.813Z,14.00
2018-02-23T18:24:00.285Z,14.30
2018-02-23T18:27:01.848Z,14.50
2018-02-23T18:30:03.172Z,15.20
2018-02-23T18:33:04.801Z,16.13
2018-02-23T18:36:06.502Z,14.33
2018-02-23T18:39:08.855Z,13.00
2018-02-23T18:42:10.583Z,14.30
2018-02-23T18:45:11.856Z,20.27
2018-02-23T18:48:14.307Z,27.73
2018-02-23T18:51:15.613Z,18.70
2018-02-23T18:54:17.140Z,16.57
2018-02-23T18:57:18.393Z,17.53
2018-02-23T19:00:20.107Z,15.07
2018-02-23T19:03:22.809Z,17.67
2018-02-23T19:06:24.796Z,18.30
2018-02-23T19:09:27.305Z,21.00
2018-02-23T19:12:28.663Z,46.30
2018-02-23T19:15:30.077Z,15.97
2018-02-23T19:18:31.716Z,16.20
2018-02-23T19:21:33.061Z,19.30
2018-02-23T19:24:35.263Z,20.47
2018-02-23T19:27:37.704Z,15.90
2018-02-23T19:30:40.095Z,19.83
2018-02-23T19:33:41.633Z,20.00
2018-02-23T19:36:43.360Z,22.97
2018-02-23T19:39:45.015Z,12.97
2018-02-23T19:42:46.936Z,12.13
2018-02-23T19:45:48.653Z,21.30
2018-02-23T19:48:50.075Z,14.03
2018-02-23T19:51:51.313Z,12.93
2018-02-23T19:54:53.017Z,19.30
2018-02-23T19:57:54.253Z,17.00
2018-02-23T20:00:56.480Z,16.03
2018-02-23T20:03:57.731Z,14.47
2018-02-23T20:06:59.214Z,23.37
2018-02-23T20:10:00.449Z,13.77
2018-02-23T20:13:01.703Z,14.80
2018-02-23T20:16:03.760Z,11.23
2018-02-23T20:19:06.081Z,35.63
2018-02-23T20:22:08.210Z,11.33
2018-02-23T20:25:09.464Z,13.00
2018-02-23T20:28:10.914Z,10.93
2018-02-23T20:31:12.164Z,11.37
2018-02-23T20:34:13.460Z,10.30
2018-02-23T20:37:14.717Z,10.10
2018-02-23T20:40:15.949Z,10.70
2018-02-23T20:43:17.388Z,10.20
2018-02-23T20:46:18.896Z,9.63
2018-02-23T20:49:20.375Z,10.50
2018-02-23T20:52:21.605Z,9.40
2018-02-23T20:55:23.601Z,10.40
2018-02-23T20:58:25.624Z,10.97
2018-02-23T21:01:26.888Z,12.30
2018-02-23T21:04:28.175Z,11.40
2018-02-23T21:07:29.582Z,10.20
2018-02-23T21:10:30.928Z,11.03
2018-02-23T21:13:32.908Z,9.73
2018-02-23T21:16:35.096Z,10.80
2018-02-23T21:19:37.105Z,11.17
2018-02-23T21:22:38.560Z,11.40
2018-02-23T21:25:39.904Z,17.07
2018-02-23T21:28:41.308Z,13.77
2018-02-23T21:31:42.669Z,11.33
2018-02-23T21:34:43.997Z,10.00
2018-02-23T21:37:45.253Z,13.60
2018-02-23T21:40:46.468Z,17.50
2018-02-23T21:43:47.892Z,12.47
2018-02-23T21:46:50.084Z,11.63
2018-02-23T21:49:51.525Z,11.07
2018-02-23T21:52:52.754Z,12.77
2018-02-23T21:55:54.008Z,15.60
2018-02-23T21:58:55.299Z,20.20
2018-02-23T22:01:56.784Z,12.90
2018-02-23T22:04:58.957Z,13.60
2018-02-23T22:08:00.438Z,16.40
2018-02-23T22:11:01.784Z,21.20
2018-02-23T22:14:03.751Z,17.50
2018-02-23T22:17:04.981Z,36.67
2018-02-23T22:20:06.321Z,15.63
2018-02-23T22:23:07.514Z,15.53
2018-02-23T22:26:08.737Z,15.97
2018-02-23T22:29:10.004Z,12.43
2018-02-23T22:32:11.242Z,14.37
2018-02-23T22:35:12.442Z,14.50
2018-02-23T22:38:14.457Z,14.50
2018-02-23T22:41:15.673Z,17.20
2018-02-23T22:44:16.877Z,17.77
2018-02-23T22:47:18.121Z,13.30
2018-02-23T22:50:20.098Z,15.50
2018-02-23T22:53:22.069Z,26.40
2018-02-23T22:59:54.089Z,14.70
2018-02-23T23:02:56.071Z,13.97
2018-02-23T23:05:58.021Z,19.00
2018-02-23T23:08:59.369Z,21.37
2018-02-23T23:12:00.608Z,16.67
2018-02-23T23:15:01.822Z,20.20
2018-02-23T23:18:03.037Z,17.23
2018-02-23T23:21:04.262Z,16.07
2018-02-23T23:24:06.228Z,22.00
2018-02-23T23:27:07.442Z,21.70
2018-02-23T23:30:08.637Z,17.63
2018-02-23T23:33:09.868Z,17.13
2018-02-23T23:36:11.085Z,16.37
2018-02-23T23:39:12.320Z,17.40
2018-02-23T23:42:13.522Z,16.70
2018-02-23T23:45:15.479Z,16.90
2018-02-23T23:48:16.669Z,16.53
2018-02-23T23:51:18.614Z,14.90
2018-02-23T23:54:19.824Z,16.70
2018-02-23T23:57:21.039Z,15.23
